Time;durP1;ratioP1;P1;durP2;ratioP2;P2;SDS_P1;SDS_P2;PMS_P1;PMS_P2;Temp;Humidity;BMP_temperature;BMP_pressure;BME280_temperature;BME280_humidity;BME280_pressure;Samples;Min_cycle;Max_cycle;Signal;HPM_P1;HPM_P2
2021/06/05 00:01:52;;;;;;;24.95;18.55;;;18.00;99.90;;;;;;5032182;28;20033;-64
2021/06/05 00:04:23;;;;;;;22.45;16.17;;;17.90;99.90;;;;;;5030732;28;20473;-64
2021/06/05 00:06:50;;;;;;;22.30;15.80;;;17.90;99.90;;;;;;5030888;28;20037;-64
2021/06/05 00:09:19;;;;;;;33.00;23.13;;;17.70;99.90;;;;;;5031963;28;20037;-64
2021/06/05 00:11:44;;;;;;;35.53;24.42;;;17.80;99.90;;;;;;5031805;28;20397;-64
2021/06/05 00:14:12;;;;;;;33.97;23.38;;;17.90;99.90;;;;;;5031648;28;20030;-64
2021/06/05 00:16:47;;;;;;;30.00;23.15;;;18.00;99.90;;;;;;5030575;28;20034;-65
2021/06/05 00:19:16;;;;;;;28.90;20.00;;;17.90;99.90;;;;;;5030332;28;20038;-65
2021/06/05 00:21:43;;;;;;;26.63;16.80;;;17.80;99.90;;;;;;5032899;28;20041;-64
2021/06/05 00:24:10;;;;;;;19.05;14.13;;;17.90;99.90;;;;;;5035261;28;20484;-64
2021/06/05 00:26:36;;;;;;;17.52;12.80;;;17.90;99.90;;;;;;5035250;28;20060;-64
2021/06/05 00:29:03;;;;;;;20.05;14.43;;;17.90;99.90;;;;;;5033708;28;20553;-65
2021/06/05 00:31:29;;;;;;;20.45;13.40;;;18.00;99.90;;;;;;5035168;28;20041;-65
2021/06/05 00:33:56;;;;;;;26.40;18.42;;;17.90;99.90;;;;;;5033962;28;20029;-63
2021/06/05 00:36:22;;;;;;;32.22;23.13;;;18.00;99.90;;;;;;5035376;28;20025;-63
2021/06/05 00:38:48;;;;;;;24.80;19.42;;;18.00;99.90;;;;;;5035580;28;20030;-63
2021/06/05 00:41:18;;;;;;;21.70;15.27;;;17.90;99.90;;;;;;5035166;28;20509;-63
2021/06/05 00:43:50;;;;;;;12.48;7.07;;;17.80;99.90;;;;;;5033730;28;20026;-64
2021/06/05 00:46:21;;;;;;;8.55;5.07;;;17.60;99.90;;;;;;5035045;28;20132;-63
2021/06/05 00:48:48;;;;;;;6.68;4.65;;;17.60;99.90;;;;;;5034963;28;20439;-63
2021/06/05 00:51:14;;;;;;;9.23;4.78;;;17.50;99.90;;;;;;5034716;28;20041;-64
2021/06/05 00:53:40;;;;;;;10.18;5.15;;;17.50;99.90;;;;;;5035009;28;20116;-63
2021/06/05 00:56:12;;;;;;;10.15;5.50;;;17.40;99.90;;;;;;5034733;28;20183;-63
2021/06/05 00:58:38;;;;;;;7.05;4.78;;;17.40;99.90;;;;;;5033727;28;20025;-64
2021/06/05 01:01:16;;;;;;;9.65;5.20;;;17.40;99.90;;;;;;5033382;28;20037;-63
2021/06/05 01:03:43;;;;;;;9.63;5.80;;;17.40;99.90;;;;;;5034666;28;20036;-63
2021/06/05 01:06:37;;;;;;;12.55;5.57;;;17.40;99.90;;;;;;5033556;28;20056;-64
2021/06/05 01:09:29;;;;;;;8.95;5.72;;;17.40;99.90;;;;;;5033297;28;20042;-63
2021/06/05 01:12:47;;;;;;;8.68;5.28;;;17.40;99.90;;;;;;5033342;28;20112;-64
2021/06/05 01:15:48;;;;;;;11.52;5.68;;;17.40;99.90;;;;;;5033298;28;20087;-64
2021/06/05 01:18:41;;;;;;;10.80;5.35;;;17.40;99.90;;;;;;5034256;28;20040;-64
2021/06/05 01:21:39;;;;;;;9.23;5.38;;;17.40;99.90;;;;;;5033243;28;20447;-64
2021/06/05 01:24:47;;;;;;;9.07;5.10;;;17.40;99.90;;;;;;5032951;28;20026;-65
2021/06/05 01:27:41;;;;;;;7.53;5.60;;;17.40;99.90;;;;;;5033971;28;20046;-65
2021/06/05 01:30:56;;;;;;;7.43;5.45;;;17.30;99.90;;;;;;5032561;28;20054;-65
2021/06/05 01:33:25;;;;;;;13.63;5.18;;;17.40;99.90;;;;;;5032167;28;20433;-64
2021/06/05 01:35:52;;;;;;;8.48;4.80;;;17.40;99.90;;;;;;5032860;28;20033;-64
2021/06/05 01:38:20;;;;;;;6.40;4.97;;;17.40;99.90;;;;;;5032627;28;20026;-65
2021/06/05 01:40:49;;;;;;;10.77;5.07;;;17.40;99.90;;;;;;5032763;28;20111;-65
2021/06/05 01:43:20;;;;;;;6.70;4.70;;;17.40;99.90;;;;;;5032788;28;20045;-64
2021/06/05 01:45:47;;;;;;;11.27;5.20;;;17.40;99.90;;;;;;5033947;28;20032;-64
2021/06/05 01:48:15;;;;;;;5.75;4.28;;;17.50;99.90;;;;;;5032634;28;20087;-65
2021/06/05 01:50:44;;;;;;;8.05;4.68;;;17.40;99.90;;;;;;5032464;28;20033;-64
2021/06/05 01:53:27;;;;;;;8.93;5.00;;;17.40;99.90;;;;;;5033858;28;20139;-65
2021/06/05 01:56:11;;;;;;;9.70;4.78;;;17.40;99.90;;;;;;5033965;28;20029;-65
2021/06/05 01:58:37;;;;;;;13.45;5.72;;;17.50;99.90;;;;;;5032772;28;20029;-65
2021/06/05 02:01:04;;;;;;;7.57;4.90;;;17.50;99.90;;;;;;5032464;28;20084;-65
2021/06/05 02:03:30;;;;;;;7.30;4.95;;;17.40;99.90;;;;;;5033734;28;20477;-65
2021/06/05 02:05:56;;;;;;;7.60;5.07;;;17.10;99.90;;;;;;5033418;28;20052;-65
2021/06/05 02:08:26;;;;;;;10.10;5.53;;;17.10;99.90;;;;;;5032267;28;20044;-65
2021/06/05 02:10:59;;;;;;;12.02;6.10;;;17.20;99.90;;;;;;5033317;28;20039;-65
2021/06/05 02:13:41;;;;;;;8.55;6.15;;;17.20;99.90;;;;;;5032420;28;20509;-65
2021/06/05 02:16:29;;;;;;;12.55;5.65;;;17.20;99.90;;;;;;5032286;28;20037;-65
2021/06/05 02:19:19;;;;;;;6.72;4.53;;;17.30;99.90;;;;;;5033114;28;20025;-65
2021/06/05 02:21:47;;;;;;;8.02;5.22;;;17.30;99.90;;;;;;5033179;28;20033;-65
2021/06/05 02:24:20;;;;;;;5.65;4.35;;;17.30;99.90;;;;;;5031624;28;20107;-65
2021/06/05 02:26:47;;;;;;;6.95;4.28;;;17.40;99.90;;;;;;5033249;28;20145;-65
2021/06/05 02:29:19;;;;;;;9.65;4.63;;;17.30;99.90;;;;;;5031422;28;20045;-65
2021/06/05 02:31:45;;;;;;;9.63;3.92;;;17.30;99.90;;;;;;5032153;28;20037;-65
2021/06/05 02:34:24;;;;;;;5.68;3.50;;;17.40;99.90;;;;;;5032982;28;20030;-65
2021/06/05 02:36:54;;;;;;;5.78;3.45;;;17.50;99.90;;;;;;5031958;28;20120;-65
2021/06/05 02:39:21;;;;;;;4.63;2.97;;;17.50;99.90;;;;;;5031415;28;20108;-65
2021/06/05 02:41:50;;;;;;;6.78;3.28;;;17.50;99.90;;;;;;5031880;28;20041;-65
2021/06/05 02:44:20;;;;;;;5.80;3.42;;;17.50;99.90;;;;;;5032534;28;20517;-65
2021/06/05 02:46:47;;;;;;;4.82;2.75;;;17.50;99.90;;;;;;5031774;28;20040;-65
2021/06/05 02:49:19;;;;;;;6.68;2.67;;;17.60;99.90;;;;;;5032470;28;20079;-65
2021/06/05 02:51:52;;;;;;;6.40;3.00;;;17.60;99.90;;;;;;5032835;28;20040;-65
2021/06/05 02:54:21;;;;;;;5.35;2.97;;;17.50;99.90;;;;;;5031293;28;20033;-65
2021/06/05 02:56:47;;;;;;;9.38;3.15;;;17.50;99.90;;;;;;5031397;28;20032;-65
2021/06/05 02:59:13;;;;;;;7.65;3.53;;;17.60;99.90;;;;;;5032291;28;20045;-65
2021/06/05 03:01:38;;;;;;;6.18;3.00;;;17.50;99.90;;;;;;5031411;28;20025;-65
2021/06/05 03:04:04;;;;;;;7.07;3.70;;;17.40;99.90;;;;;;5032663;28;20117;-65
2021/06/05 03:06:32;;;;;;;4.97;3.28;;;17.40;99.90;;;;;;5032654;28;20037;-64
2021/06/05 03:08:58;;;;;;;6.68;3.08;;;17.40;99.90;;;;;;5032634;28;20030;-64
2021/06/05 03:11:25;;;;;;;4.13;3.03;;;17.50;99.90;;;;;;5030945;28;20033;-65
2021/06/05 03:13:52;;;;;;;7.07;3.20;;;17.60;99.90;;;;;;5031205;28;20038;-65
2021/06/05 03:16:18;;;;;;;5.30;3.10;;;17.60;99.90;;;;;;5032095;28;20029;-65
2021/06/05 03:18:45;;;;;;;5.55;3.40;;;17.60;99.90;;;;;;5031255;28;20038;-65
2021/06/05 03:21:17;;;;;;;5.65;3.03;;;17.50;99.90;;;;;;5030895;28;20041;-65
2021/06/05 03:23:46;;;;;;;5.80;2.88;;;17.50;99.90;;;;;;5032434;28;20520;-65
2021/06/05 03:26:14;;;;;;;4.85;2.75;;;17.50;99.90;;;;;;5032037;28;20390;-65
2021/06/05 03:28:41;;;;;;;4.70;3.30;;;17.50;99.90;;;;;;5031692;28;20046;-65
2021/06/05 03:31:07;;;;;;;5.07;2.88;;;17.50;99.90;;;;;;5031935;28;20387;-65
2021/06/05 03:33:33;;;;;;;5.03;3.00;;;17.50;99.90;;;;;;5030832;28;20132;-65
2021/06/05 03:35:59;;;;;;;10.75;2.95;;;17.50;99.90;;;;;;5030721;28;20549;-65
2021/06/05 03:38:27;;;;;;;11.45;4.00;;;17.40;99.90;;;;;;5032054;28;20171;-65
2021/06/05 03:40:54;;;;;;;7.38;2.97;;;17.40;99.90;;;;;;5030818;28;20112;-65
2021/06/05 03:43:21;;;;;;;6.05;3.28;;;17.30;99.90;;;;;;5031683;28;20114;-65
2021/06/05 03:45:48;;;;;;;7.28;3.05;;;17.40;99.90;;;;;;5014273;28;20038;-65
2021/06/05 03:48:14;;;;;;;7.18;3.35;;;17.40;99.90;;;;;;5030591;28;20034;-65
2021/06/05 03:50:49;;;;;;;6.47;3.00;;;17.40;99.90;;;;;;5031878;28;20037;-65
2021/06/05 03:53:16;;;;;;;7.28;3.03;;;17.40;99.90;;;;;;5031794;28;20036;-65
2021/06/05 03:55:43;;;;;;;5.95;2.97;;;17.40;99.90;;;;;;5031783;28;20025;-65
2021/06/05 03:58:10;;;;;;;5.28;2.88;;;17.60;99.90;;;;;;5034550;28;20036;-65
2021/06/05 04:00:42;;;;;;;7.05;2.78;;;17.60;99.90;;;;;;5035972;28;20497;-65
2021/06/05 04:03:10;;;;;;;3.97;2.33;;;17.60;99.90;;;;;;5035651;28;20034;-65
2021/06/05 04:05:37;;;;;;;6.70;2.97;;;17.70;99.90;;;;;;5034616;28;20711;-65
2021/06/05 04:08:05;;;;;;;6.35;2.60;;;17.70;99.90;;;;;;5035912;28;20491;-65
2021/06/05 04:10:31;;;;;;;5.70;2.70;;;17.70;99.90;;;;;;5034480;28;20064;-65
2021/06/05 04:12:58;;;;;;;7.50;2.97;;;17.80;99.90;;;;;;5035663;28;20465;-65
2021/06/05 04:15:27;;;;;;;8.07;2.60;;;17.90;99.90;;;;;;5034187;28;20037;-65
2021/06/05 04:18:24;;;;;;;6.32;2.40;;;17.80;99.90;;;;;;5035742;28;20060;-65
2021/06/05 04:20:50;;;;;;;4.78;2.45;;;17.90;99.90;;;;;;5034948;28;20068;-65
2021/06/05 04:23:17;;;;;;;5.43;2.63;;;18.00;99.90;;;;;;5033994;28;20504;-65
2021/06/05 04:25:43;;;;;;;3.88;2.30;;;18.00;99.90;;;;;;5035100;28;20038;-65
2021/06/05 04:28:13;;;;;;;4.13;2.10;;;18.20;99.90;;;;;;5034798;28;20034;-65
2021/06/05 04:30:41;;;;;;;5.83;2.50;;;18.30;99.90;;;;;;5034028;28;20065;-65
2021/06/05 04:33:08;;;;;;;5.15;2.30;;;18.30;99.90;;;;;;5034910;28;20079;-65
2021/06/05 04:35:34;;;;;;;3.35;2.17;;;18.40;99.90;;;;;;5033863;28;20042;-65
2021/06/05 04:38:00;;;;;;;5.90;2.58;;;18.40;99.90;;;;;;5035174;28;20033;-65
2021/06/05 04:40:27;;;;;;;14.18;8.10;;;18.40;99.90;;;;;;5034061;28;20389;-65
2021/06/05 04:42:53;;;;;;;8.73;3.03;;;18.50;99.90;;;;;;5034946;28;20386;-65
2021/06/05 04:45:21;;;;;;;5.80;2.30;;;18.50;99.90;;;;;;5033619;28;20033;-65
2021/06/05 04:47:54;;;;;;;7.55;3.70;;;18.40;99.90;;;;;;5034708;28;20041;-65
2021/06/05 04:50:26;;;;;;;7.25;3.30;;;18.50;99.90;;;;;;5033646;28;20064;-65
2021/06/05 04:52:52;;;;;;;6.53;2.40;;;18.60;99.90;;;;;;5033480;28;20466;-60
2021/06/05 04:55:19;;;;;;;6.65;3.45;;;18.70;99.90;;;;;;5034838;28;20099;-60
2021/06/05 04:57:45;;;;;;;5.20;2.13;;;18.70;99.90;;;;;;5034862;28;20500;-60
2021/06/05 05:00:17;;;;;;;5.05;2.47;;;18.70;99.90;;;;;;5034647;28;20034;-60
2021/06/05 05:02:44;;;;;;;4.70;2.10;;;18.60;99.90;;;;;;5034537;28;20579;-59
2021/06/05 05:05:10;;;;;;;2.80;1.88;;;18.80;99.90;;;;;;5034146;28;20034;-59
2021/06/05 05:07:36;;;;;;;3.92;2.33;;;18.90;99.90;;;;;;5033707;28;20493;-59
2021/06/05 05:10:05;;;;;;;6.15;2.00;;;19.00;99.90;;;;;;5034390;28;20036;-60
2021/06/05 05:12:31;;;;;;;3.92;1.85;;;19.00;99.90;;;;;;5034041;28;20033;-60
2021/06/05 05:14:56;;;;;;;4.70;1.80;;;19.00;99.90;;;;;;5034599;28;20080;-60
2021/06/05 05:17:23;;;;;;;3.90;2.00;;;19.10;99.90;;;;;;5034364;28;20021;-60
2021/06/05 05:19:49;;;;;;;6.95;2.38;;;18.90;99.90;;;;;;5034398;28;20405;-60
2021/06/05 05:22:15;;;;;;;5.03;2.17;;;18.80;99.90;;;;;;5034336;28;20044;-59
2021/06/05 05:24:40;;;;;;;5.55;2.13;;;18.70;99.90;;;;;;5034167;28;20482;-59
2021/06/05 05:27:07;;;;;;;4.03;2.60;;;18.60;99.90;;;;;;5034134;28;20445;-59
2021/06/05 05:29:33;;;;;;;4.32;2.38;;;18.60;99.90;;;;;;5033762;28;20045;-60
2021/06/05 05:31:59;;;;;;;5.97;2.42;;;18.70;99.90;;;;;;5033836;28;20121;-59
2021/06/05 05:34:25;;;;;;;9.20;2.33;;;18.80;99.90;;;;;;5034327;28;20108;-59
2021/06/05 05:36:51;;;;;;;7.18;1.95;;;18.80;99.90;;;;;;5033779;28;20033;-62
2021/06/05 05:39:19;;;;;;;8.43;2.20;;;18.90;99.90;;;;;;5033702;28;20111;-62
2021/06/05 05:41:48;;;;;;;6.82;2.63;;;18.90;99.90;;;;;;5033991;28;20061;-59
2021/06/05 05:44:14;;;;;;;5.60;2.40;;;19.00;99.90;;;;;;5033765;28;20033;-62
2021/06/05 05:46:41;;;;;;;4.32;2.20;;;19.10;99.90;;;;;;5033354;28;20393;-61
2021/06/05 05:49:07;;;;;;;8.18;2.50;;;19.20;99.90;;;;;;5033606;28;20041;-61
2021/06/05 05:51:32;;;;;;;7.43;2.40;;;19.20;99.90;;;;;;5033802;28;20030;-61
2021/06/05 05:53:59;;;;;;;5.38;2.50;;;19.50;99.90;;;;;;5031995;28;20030;-60
2021/06/05 05:56:28;;;;;;;4.85;2.72;;;19.40;99.90;;;;;;5033274;28;20033;-60
2021/06/05 05:58:56;;;;;;;4.65;2.20;;;19.50;99.90;;;;;;5032142;28;20041;-60
2021/06/05 06:01:23;;;;;;;7.07;3.78;;;19.40;99.90;;;;;;5033445;28;20045;-60
2021/06/05 06:03:52;;;;;;;5.32;2.70;;;19.50;99.90;;;;;;5033304;28;20530;-60
2021/06/05 06:06:20;;;;;;;4.82;2.80;;;19.50;99.90;;;;;;5033348;28;20038;-62
2021/06/05 06:08:46;;;;;;;6.93;2.28;;;19.40;99.90;;;;;;5033103;28;20033;-61
2021/06/05 06:11:13;;;;;;;5.57;2.20;;;19.40;99.90;;;;;;5033543;28;20057;-59
2021/06/05 06:13:39;;;;;;;4.18;2.17;;;19.70;99.90;;;;;;5033052;28;20029;-60
2021/06/05 06:16:07;;;;;;;6.90;2.15;;;19.80;99.90;;;;;;5031832;28;20018;-60
2021/06/05 06:18:36;;;;;;;6.05;2.40;;;19.80;99.90;;;;;;5030872;28;20069;-61
2021/06/05 06:21:06;;;;;;;5.07;2.60;;;19.60;99.90;;;;;;5033676;28;20377;-60
2021/06/05 06:23:39;;;;;;;6.18;2.42;;;19.80;99.90;;;;;;5031899;28;20112;-60
2021/06/05 06:26:11;;;;;;;6.72;2.65;;;20.10;99.90;;;;;;5041487;28;20033;-66
2021/06/05 06:28:39;;;;;;;5.57;2.90;;;19.90;99.90;;;;;;5052407;28;20060;-61
2021/06/05 06:31:08;;;;;;;4.65;2.60;;;20.00;99.90;;;;;;5052866;28;20064;-61
2021/06/05 06:33:35;;;;;;;6.32;2.88;;;20.20;99.90;;;;;;5052622;28;20056;-61
2021/06/05 06:36:03;;;;;;;6.25;3.17;;;20.40;99.90;;;;;;5052563;28;20074;-61
2021/06/05 06:38:35;;;;;;;6.15;2.08;;;20.40;99.90;;;;;;5052741;28;20108;-60
2021/06/05 06:41:04;;;;;;;7.30;2.78;;;20.50;99.90;;;;;;5052937;28;20025;-59
2021/06/05 06:43:31;;;;;;;5.25;2.70;;;20.50;99.90;;;;;;5052248;28;20033;-59
2021/06/05 06:46:03;;;;;;;5.53;2.40;;;20.70;99.90;;;;;;5048771;28;20042;-59
2021/06/05 06:48:29;;;;;;;8.68;2.50;;;20.80;99.90;;;;;;5032327;28;20497;-59
2021/06/05 06:50:55;;;;;;;5.57;2.42;;;21.00;99.90;;;;;;5032624;28;20044;-61
2021/06/05 06:53:21;;;;;;;4.40;2.75;;;20.90;99.90;;;;;;5032401;28;20397;-66
2021/06/05 06:55:47;;;;;;;6.75;3.03;;;20.80;99.90;;;;;;5032479;28;20033;-66
2021/06/05 06:58:13;;;;;;;4.78;3.00;;;20.80;99.90;;;;;;5031281;28;20061;-66
2021/06/05 07:00:43;;;;;;;7.60;2.85;;;20.80;99.90;;;;;;5031384;28;20195;-65
2021/06/05 07:03:10;;;;;;;4.78;2.70;;;20.80;99.90;;;;;;5031221;28;20509;-66
2021/06/05 07:05:37;;;;;;;8.75;2.40;;;20.90;99.90;;;;;;5032375;28;20057;-66
2021/06/05 07:08:39;;;;;;;4.90;2.70;;;21.00;99.90;;;;;;5031096;28;20116;-66
2021/06/05 07:11:16;;;;;;;4.80;2.63;;;21.00;99.90;;;;;;5031844;28;20122;-66
2021/06/05 07:13:42;;;;;;;4.68;2.40;;;20.90;99.90;;;;;;5032141;28;20025;-66
2021/06/05 07:16:08;;;;;;;6.28;2.88;;;20.80;99.90;;;;;;5037436;28;20070;-66
2021/06/05 07:18:35;;;;;;;5.07;2.88;;;20.70;99.90;;;;;;5052107;28;20056;-66
2021/06/05 07:21:03;;;;;;;7.63;2.75;;;20.70;99.90;;;;;;5052324;28;20025;-66
2021/06/05 07:23:32;;;;;;;6.45;3.13;;;20.70;99.90;;;;;;5052077;28;20032;-66
2021/06/05 07:26:00;;;;;;;7.63;3.88;;;20.70;99.90;;;;;;5050846;28;20479;-66
2021/06/05 07:28:45;;;;;;;7.82;3.20;;;20.70;99.90;;;;;;5051489;28;20055;-67
2021/06/05 07:31:20;;;;;;;8.25;3.58;;;20.70;99.90;;;;;;5055775;28;20116;-67
2021/06/05 07:33:47;;;;;;;7.68;3.75;;;20.70;99.90;;;;;;5054890;28;20029;-67
2021/06/05 07:36:17;;;;;;;8.43;3.75;;;20.80;99.90;;;;;;5056357;28;20020;-67
2021/06/05 07:38:43;;;;;;;8.05;4.28;;;20.80;99.90;;;;;;5054789;28;20047;-67
2021/06/05 07:41:10;;;;;;;7.72;3.70;;;21.00;99.90;;;;;;5055139;28;20041;-67
2021/06/05 07:43:37;;;;;;;7.65;3.75;;;21.10;99.90;;;;;;5055983;28;20045;-62
2021/06/05 07:46:03;;;;;;;9.15;4.07;;;21.20;99.90;;;;;;5051304;28;20060;-59
2021/06/05 07:48:30;;;;;;;7.97;3.90;;;21.20;99.90;;;;;;5035573;28;20047;-60
2021/06/05 07:50:57;;;;;;;9.00;3.78;;;21.10;99.90;;;;;;5035548;28;20039;-60
2021/06/05 07:53:23;;;;;;;8.43;3.63;;;21.20;99.90;;;;;;5035453;28;20404;-59
2021/06/05 07:55:49;;;;;;;7.95;4.57;;;21.10;99.90;;;;;;5035754;28;20030;-59
2021/06/05 07:58:15;;;;;;;8.80;4.30;;;21.30;99.90;;;;;;5035889;28;20033;-68
2021/06/05 08:00:41;;;;;;;9.00;4.65;;;21.20;99.90;;;;;;5035795;28;20041;-67
2021/06/05 08:03:08;;;;;;;9.55;4.15;;;21.20;99.90;;;;;;5035595;28;20049;-67
2021/06/05 08:05:36;;;;;;;8.75;4.57;;;21.20;99.90;;;;;;5035421;28;20029;-68
2021/06/05 08:08:04;;;;;;;7.68;4.80;;;21.00;99.90;;;;;;5034200;28;20030;-66
2021/06/05 08:10:31;;;;;;;10.90;4.95;;;21.00;99.90;;;;;;5035360;28;20065;-60
2021/06/05 08:12:58;;;;;;;14.15;5.80;;;21.10;99.90;;;;;;5035393;28;20580;-59
2021/06/05 08:15:30;;;;;;;8.95;4.25;;;21.10;99.90;;;;;;5035390;28;20305;-60
2021/06/05 08:17:57;;;;;;;6.40;3.42;;;21.00;99.90;;;;;;5015528;28;20394;-60
2021/06/05 08:20:32;;;;;;;10.93;3.97;;;21.00;99.90;;;;;;5015426;28;20034;-59
2021/06/05 08:22:58;;;;;;;6.90;3.40;;;20.90;99.90;;;;;;5015591;28;20026;-59
2021/06/05 08:25:25;;;;;;;5.75;3.10;;;20.90;99.90;;;;;;5015125;28;20038;-60
2021/06/05 08:27:52;;;;;;;7.07;4.22;;;20.80;99.90;;;;;;5015593;28;20034;-60
2021/06/05 08:30:25;;;;;;;7.30;4.80;;;20.70;99.90;;;;;;5030381;28;20525;-60
2021/06/05 08:32:51;;;;;;;9.85;5.53;;;20.70;99.90;;;;;;5030319;28;20108;-59
2021/06/05 08:35:17;;;;;;;11.43;5.78;;;20.50;99.90;;;;;;5030132;28;20171;-60
2021/06/05 08:37:43;;;;;;;10.35;5.75;;;20.50;99.90;;;;;;5034930;28;20051;-57
2021/06/05 08:40:14;;;;;;;8.80;5.97;;;20.60;99.90;;;;;;5034880;28;20466;-58
2021/06/05 08:42:50;;;;;;;9.20;4.88;;;20.60;99.90;;;;;;5030154;28;20451;-56
2021/06/05 08:45:29;;;;;;;18.65;4.40;;;20.50;99.90;;;;;;5033646;28;20033;-60
2021/06/05 08:47:56;;;;;;;9.98;4.00;;;20.30;99.90;;;;;;5014126;28;20038;-60
2021/06/05 08:50:29;;;;;;;11.18;5.60;;;20.50;99.90;;;;;;5015230;28;20029;-59
2021/06/05 08:53:15;;;;;;;6.80;5.00;;;20.60;99.90;;;;;;5015056;28;20121;-59
2021/06/05 08:56:05;;;;;;;8.57;4.18;;;20.60;99.90;;;;;;5028655;28;20367;-59
2021/06/05 08:58:50;;;;;;;7.55;4.13;;;20.60;99.90;;;;;;5013748;28;20026;-59
2021/06/05 09:01:42;;;;;;;8.02;4.65;;;20.60;99.90;;;;;;5030233;28;20041;-60
2021/06/05 09:04:14;;;;;;;8.55;4.10;;;20.60;99.90;;;;;;5015060;28;20045;-60
2021/06/05 09:07:01;;;;;;;6.10;4.22;;;20.60;99.90;;;;;;5014749;28;20387;-59
2021/06/05 09:09:33;;;;;;;8.70;5.32;;;20.80;99.90;;;;;;5028823;28;20386;-60
2021/06/05 09:12:01;;;;;;;6.60;5.03;;;20.70;99.90;;;;;;5029565;28;20044;-61
2021/06/05 09:14:27;;;;;;;12.07;5.82;;;20.70;99.90;;;;;;5014471;28;20044;-61
2021/06/05 09:16:54;;;;;;;9.70;6.57;;;20.80;99.90;;;;;;5037924;28;20112;-60
2021/06/05 09:19:40;;;;;;;11.65;6.72;;;20.80;99.90;;;;;;5053069;28;20045;-60
2021/06/05 09:22:06;;;;;;;17.60;7.85;;;20.80;99.90;;;;;;5052514;28;20045;-61
2021/06/05 09:24:36;;;;;;;8.02;4.03;;;20.90;99.90;;;;;;5054087;28;20048;-61
2021/06/05 09:27:26;;;;;;;6.17;3.60;;;20.90;99.90;;;;;;5069074;28;20025;-60
2021/06/05 09:30:18;;;;;;;11.13;4.25;;;21.00;99.90;;;;;;5053515;28;20060;-61
2021/06/05 09:32:46;;;;;;;11.65;5.38;;;21.00;99.90;;;;;;5053535;28;20029;-61
2021/06/05 09:35:14;;;;;;;9.55;4.95;;;20.90;99.90;;;;;;5069402;28;20412;-59
2021/06/05 09:37:53;;;;;;;11.90;4.93;;;21.00;99.90;;;;;;5053650;28;20040;-60
2021/06/05 09:40:33;;;;;;;7.32;4.40;;;21.00;99.90;;;;;;5053745;28;20039;-60
2021/06/05 09:43:08;;;;;;;8.30;4.70;;;21.20;99.90;;;;;;5069360;28;20108;-60
2021/06/05 09:45:40;;;;;;;9.05;4.60;;;21.20;99.90;;;;;;5052878;28;20060;-60
2021/06/05 09:48:27;;;;;;;9.23;5.22;;;21.30;99.90;;;;;;5048646;28;20029;-61
2021/06/05 09:50:58;;;;;;;8.98;4.78;;;21.20;99.90;;;;;;5048414;28;20459;-60
2021/06/05 09:53:34;;;;;;;6.28;4.43;;;21.30;99.90;;;;;;5032432;28;20083;-59
2021/06/05 09:56:11;;;;;;;7.72;4.47;;;21.40;99.90;;;;;;5033762;28;20426;-59
2021/06/05 09:58:42;;;;;;;8.40;4.82;;;21.30;99.90;;;;;;5033662;28;20037;-59
2021/06/05 10:01:23;;;;;;;10.80;5.63;;;21.40;99.90;;;;;;5033431;28;20033;-59
2021/06/05 10:04:10;;;;;;;7.80;4.20;;;21.40;99.90;;;;;;5033551;28;20025;-60
2021/06/05 10:06:46;;;;;;;8.40;4.60;;;21.50;99.90;;;;;;5047207;28;20087;-59
2021/06/05 10:09:27;;;;;;;8.98;5.15;;;21.30;99.90;;;;;;5033541;28;20037;-59
2021/06/05 10:12:10;;;;;;;8.25;4.65;;;21.40;99.90;;;;;;5033079;28;20453;-61
2021/06/05 10:15:11;;;;;;;6.57;4.15;;;21.40;99.90;;;;;;5033346;28;20446;-60
2021/06/05 10:17:59;;;;;;;6.22;4.28;;;21.40;99.90;;;;;;5031539;28;20057;-59
2021/06/05 10:21:02;;;;;;;8.10;4.78;;;21.50;99.90;;;;;;5048092;28;20034;-59
2021/06/05 10:23:34;;;;;;;9.50;5.15;;;21.50;99.90;;;;;;5038366;28;20060;-59
2021/06/05 10:26:07;;;;;;;9.02;5.80;;;21.50;99.90;;;;;;5032961;28;20033;-59
2021/06/05 10:28:45;;;;;;;11.40;5.82;;;21.60;99.90;;;;;;5047404;28;20049;-59
2021/06/05 10:31:16;;;;;;;10.35;6.40;;;21.70;99.90;;;;;;5047707;28;20026;-58
2021/06/05 10:34:03;;;;;;;10.68;5.70;;;21.70;99.90;;;;;;5048062;28;20493;-59
2021/06/05 10:36:50;;;;;;;9.95;5.82;;;21.80;99.90;;;;;;5033137;28;20155;-59
2021/06/05 10:39:51;;;;;;;9.82;5.75;;;21.70;99.90;;;;;;5047627;28;20052;-58
2021/06/05 10:42:52;;;;;;;9.43;5.30;;;21.80;99.90;;;;;;5022266;28;20043;-59
2021/06/05 10:45:36;;;;;;;11.70;5.55;;;21.70;99.90;;;;;;5031493;28;20792;-59
2021/06/05 10:48:09;;;;;;;8.95;6.05;;;21.90;99.90;;;;;;5031432;28;20033;-60
2021/06/05 10:50:47;;;;;;;10.10;5.30;;;22.00;99.90;;;;;;5031347;28;20083;-56
2021/06/05 10:53:22;;;;;;;11.55;5.25;;;21.90;99.90;;;;;;5031670;28;20061;-59
2021/06/05 10:56:11;;;;;;;11.20;5.65;;;22.10;99.90;;;;;;5032377;28;20075;-60
2021/06/05 10:58:48;;;;;;;7.93;5.25;;;22.10;99.90;;;;;;5037912;28;20021;-59
2021/06/05 11:01:39;;;;;;;9.27;5.07;;;22.10;99.90;;;;;;5051042;28;20378;-60
2021/06/05 11:04:31;;;;;;;10.32;5.53;;;22.10;99.90;;;;;;5052015;28;20032;-59
2021/06/05 11:07:02;;;;;;;8.82;4.88;;;22.20;99.90;;;;;;5051993;28;20048;-59
2021/06/05 11:09:29;;;;;;;12.98;5.18;;;22.40;99.90;;;;;;5052488;28;20477;-59
2021/06/05 11:12:00;;;;;;;21.40;6.82;;;22.10;99.90;;;;;;5051955;28;20051;-60
2021/06/05 11:14:35;;;;;;;;;;;22.00;99.90;;;;;;5052898;28;20029;-60
2021/06/05 11:17:01;;;;;;;12.07;5.55;;;21.90;99.90;;;;;;5052139;28;19913;-60
2021/06/05 11:19:53;;;;;;;14.32;5.57;;;21.80;99.90;;;;;;5052303;28;20041;-59
2021/06/05 11:22:47;;;;;;;12.18;6.63;;;21.90;99.90;;;;;;5052368;28;20053;-60
2021/06/05 11:25:16;;;;;;;11.60;5.80;;;21.80;99.90;;;;;;5051800;28;20477;-60
2021/06/05 11:27:41;;;;;;;14.65;6.65;;;21.90;99.90;;;;;;5051554;28;20033;-60
2021/06/05 11:30:27;;;;;;;10.73;6.20;;;21.90;99.90;;;;;;5032876;28;20227;-60
2021/06/05 11:33:10;;;;;;;13.25;7.47;;;22.00;99.90;;;;;;5031108;28;20050;-60
2021/06/05 11:35:58;;;;;;;29.48;7.43;;;22.10;99.90;;;;;;5032444;28;20037;-60
2021/06/05 11:38:24;;;;;;;12.70;7.07;;;22.30;99.90;;;;;;4998477;28;20038;-67
2021/06/05 11:40:57;;;;;;;11.00;7.03;;;22.50;99.90;;;;;;5032066;28;20037;-67
2021/06/05 11:43:29;;;;;;;14.30;7.18;;;22.60;99.90;;;;;;5031730;28;20037;-67
2021/06/05 11:46:09;;;;;;;10.07;6.35;;;22.70;99.90;;;;;;5031894;28;20029;-67
2021/06/05 11:48:48;;;;;;;9.67;5.23;;;23.00;99.90;;;;;;5014197;28;20033;-67
2021/06/05 11:51:20;;;;;;;12.23;6.00;;;23.00;99.90;;;;;;5031019;28;20033;-66
2021/06/05 11:53:51;;;;;;;9.13;4.75;;;22.80;99.90;;;;;;5031451;28;20544;-67
2021/06/05 11:56:32;;;;;;;11.88;5.13;;;23.10;99.90;;;;;;5031732;28;20037;-66
2021/06/05 11:59:22;;;;;;;9.43;4.25;;;23.40;99.90;;;;;;5040757;28;20056;-67
2021/06/05 12:01:49;;;;;;;10.88;4.70;;;23.90;99.90;;;;;;5066501;28;20029;-67
2021/06/05 12:04:19;;;;;;;6.97;4.07;;;23.80;99.90;;;;;;5050213;28;20029;-55
2021/06/05 12:06:48;;;;;;;7.47;3.00;;;24.30;99.90;;;;;;5051509;28;20029;-56
2021/06/05 12:09:24;;;;;;;4.50;3.05;;;25.00;99.90;;;;;;5051762;28;20040;-58
2021/06/05 12:12:08;;;;;;;5.25;3.03;;;24.80;99.90;;;;;;5051746;28;20036;-58
2021/06/05 12:17:18;;;;;;;5.07;2.85;;;25.40;99.90;;;;;;5053088;28;20087;-59
2021/06/05 12:19:45;;;;;;;4.53;2.45;;;25.50;99.90;;;;;;5055403;28;20071;-55
2021/06/05 12:22:30;;;;;;;7.25;3.08;;;25.90;99.90;;;;;;5054386;28;20066;-55
2021/06/05 12:24:56;;;;;;;7.45;2.55;;;24.80;99.90;;;;;;5055309;28;20404;-57
2021/06/05 12:27:38;;;;;;;5.22;2.83;;;25.50;99.90;;;;;;5054112;28;20025;-57
2021/06/05 12:30:27;;;;;;;5.47;3.20;;;26.00;99.90;;;;;;5035340;28;20046;-58
2021/06/05 12:33:02;;;;;;;5.93;3.05;;;25.70;99.90;;;;;;5034939;28;20033;-58
2021/06/05 12:35:47;;;;;;;4.68;2.20;;;25.30;99.90;;;;;;5039831;28;20079;-57
2021/06/05 12:38:49;;;;;;;2.53;1.83;;;25.30;99.90;;;;;;5054922;28;20025;-57
2021/06/05 12:41:26;;;;;;;3.83;2.60;;;25.10;99.90;;;;;;5055260;28;20111;-58
2021/06/05 12:43:53;;;;;;;4.75;2.92;;;24.70;99.90;;;;;;5053765;28;20033;-58
2021/06/05 12:46:35;;;;;;;5.38;2.63;;;24.40;99.90;;;;;;5055095;28;20031;-58
2021/06/05 12:49:08;;;;;;;4.60;2.67;;;24.00;99.90;;;;;;5053501;28;20551;-58
2021/06/05 12:51:43;;;;;;;4.90;2.70;;;23.40;99.90;;;;;;5053944;28;20036;-59
2021/06/05 12:54:38;;;;;;;8.52;3.00;;;23.30;99.90;;;;;;5053356;28;20075;-58
2021/06/05 12:57:55;;;;;;;6.70;3.83;;;22.80;99.90;;;;;;5054552;28;20032;-59
2021/06/05 13:00:48;;;;;;;8.57;3.80;;;21.90;99.90;;;;;;5014751;28;20046;-57
2021/06/05 13:03:13;;;;;;;6.13;4.10;;;21.30;99.90;;;;;;5014791;28;20119;-57
2021/06/05 13:05:59;;;;;;;11.10;5.28;;;20.70;99.90;;;;;;5015020;28;20081;-59
2021/06/05 13:08:36;;;;;;;7.60;4.60;;;20.30;99.90;;;;;;5014907;28;20111;-58
2021/06/05 13:11:05;;;;;;;8.82;5.13;;;20.00;99.90;;;;;;5029343;28;20414;-58
2021/06/05 13:13:34;;;;;;;11.15;5.32;;;19.80;99.90;;;;;;5029868;28;20030;-58
2021/06/05 13:16:21;;;;;;;9.25;5.82;;;19.70;99.90;;;;;;5029472;28;20485;-58